PWSweather.com
Personal Weather Stations
Station Observations

Acton, CA 93510

Lat: 34.47703, Lon: -118.17483

Elevation: 2900

Station Type: Davis Vantage Pro 2

http://www.actonastro.com/weather/current.php

Latest ConditionsUpdated 1:08:13 PM PDT Thursday, Jul 28, 2016
Currently Today's Max Today's Min Today's Average
Temperature 96.8°F36.0°C 97.1°F36.2°C 67.6°F19.8°C 78.5°F25.8°C
Dew Point 39.7°F4.3°C 41.6°F5.3°C 34.6°F1.4°C 37.6°F3.1°C
Winds 11.0 mph W17.7 kmh W 12.0 mph NW19.3 kmh NW - 2.2 mph 3.5 kmh
Wind Gusts 18.0 mph29.0 kmh 18.0 mph29.0 kmh - -
Humidity 14% 32% 13% 24%
Pressure 29.66 in1004.4 mb 29.70 in1005.8 mb 29.66 in1004.4 mb -
Hour Temp Dew Point Humidity Winds Wind Gusts Pressure Precip Precip Rate Daily Precip Total
01:08 PM 96.8°F36.0°C 39.7°F4.3°C 14% 11.0 mph W17.7 kmh W 18.0 mph29.0 kmh 29.66 in1004.4 mb 0.00 in0.0 mm 0.00 in0.0 mm 0.00 in0.0 mm
01:03 PM 96.8°F36.0°C 37.8°F3.2°C 13% 9.0 mph NW14.5 kmh NW 18.0 mph29.0 kmh 29.66 in1004.4 mb 0.00 in0.0 mm 0.00 in0.0 mm 0.00 in0.0 mm
12:58 PM 97.1°F36.2°C 39.9°F4.4°C 14% 9.0 mph WNW14.5 kmh WNW 18.0 mph29.0 kmh 29.67 in1004.7 mb 0.00 in0.0 mm 0.00 in0.0 mm 0.00 in0.0 mm
12:53 PM 96.6°F35.9°C 37.7°F3.2°C 13% 12.0 mph NW19.3 kmh NW 18.0 mph29.0 kmh 29.67 in1004.7 mb 0.00 in0.0 mm 0.00 in0.0 mm 0.00 in0.0 mm
12:48 PM 96.6°F35.9°C 37.7°F3.2°C 13% 8.0 mph NW12.9 kmh NW 15.0 mph24.1 kmh 29.67 in1004.7 mb 0.00 in0.0 mm 0.00 in0.0 mm 0.00 in0.0 mm
12:43 PM 96.1°F35.6°C 37.3°F2.9°C 13% 6.0 mph SW9.7 kmh SW 15.0 mph24.1 kmh 29.67 in1004.7 mb 0.00 in0.0 mm 0.00 in0.0 mm 0.00 in0.0 mm
12:38 PM 96.3°F35.7°C 37.4°F3.0°C 13% 10.0 mph WSW16.1 kmh WSW 16.0 mph25.7 kmh 29.67 in1004.7 mb 0.00 in0.0 mm 0.00 in0.0 mm 0.00 in0.0 mm
12:33 PM 96.1°F35.6°C 37.3°F2.9°C 13% 9.0 mph WNW14.5 kmh WNW 16.0 mph25.7 kmh 29.67 in1004.7 mb 0.00 in0.0 mm 0.00 in0.0 mm 0.00 in0.0 mm
12:28 PM 95.9°F35.5°C 37.1°F2.8°C 13% 10.0 mph W16.1 kmh W 16.0 mph25.7 kmh 29.67 in1004.7 mb 0.00 in0.0 mm 0.00 in0.0 mm 0.00 in0.0 mm
12:23 PM 95.9°F35.5°C 37.1°F2.8°C 13% 12.0 mph NW19.3 kmh NW 16.0 mph25.7 kmh 29.67 in1004.7 mb 0.00 in0.0 mm 0.00 in0.0 mm 0.00 in0.0 mm
12:18 PM 95.9°F35.5°C 37.1°F2.8°C 13% 6.0 mph NNW9.7 kmh NNW 15.0 mph24.1 kmh 29.67 in1004.7 mb 0.00 in0.0 mm 0.00 in0.0 mm 0.00 in0.0 mm
12:13 PM 95.6°F35.3°C 36.9°F2.7°C 13% 4.0 mph W6.4 kmh W 15.0 mph24.1 kmh 29.67 in1004.7 mb 0.00 in0.0 mm 0.00 in0.0 mm 0.00 in0.0 mm
12:08 PM 95.9°F35.5°C 39.0°F3.9°C 14% 11.0 mph WSW17.7 kmh WSW 16.0 mph25.7 kmh 29.67 in1004.7 mb 0.00 in0.0 mm 0.00 in0.0 mm 0.00 in0.0 mm
12:03 PM 95.6°F35.3°C 38.8°F3.8°C 14% 4.0 mph NW6.4 kmh NW 16.0 mph25.7 kmh 29.67 in1004.7 mb 0.00 in0.0 mm 0.00 in0.0 mm 0.00 in0.0 mm
11:58 AM 95.6°F35.3°C 38.8°F3.8°C 14% 3.0 mph SW4.8 kmh SW 16.0 mph25.7 kmh 29.67 in1004.7 mb 0.00 in0.0 mm 0.00 in0.0 mm 0.00 in0.0 mm
11:53 AM 95.4°F35.2°C 40.4°F4.7°C 15% 3.0 mph W4.8 kmh W 16.0 mph25.7 kmh 29.67 in1004.7 mb 0.00 in0.0 mm 0.00 in0.0 mm 0.00 in0.0 mm
11:48 AM 95.1°F35.1°C 38.4°F3.6°C 14% 5.0 mph N8.0 kmh N 15.0 mph24.1 kmh 29.67 in1004.7 mb 0.00 in0.0 mm 0.00 in0.0 mm 0.00 in0.0 mm
11:43 AM 94.9°F34.9°C 38.2°F3.4°C 14% 7.0 mph WNW11.3 kmh WNW 15.0 mph24.1 kmh 29.67 in1004.7 mb 0.00 in0.0 mm 0.00 in0.0 mm 0.00 in0.0 mm
11:38 AM 94.9°F34.9°C 38.2°F3.4°C 14% 7.0 mph WNW11.3 kmh WNW 15.0 mph24.1 kmh 29.67 in1004.7 mb 0.00 in0.0 mm 0.00 in0.0 mm 0.00 in0.0 mm
11:33 AM 94.9°F34.9°C 38.2°F3.4°C 14% 12.0 mph NW19.3 kmh NW 13.0 mph20.9 kmh 29.67 in1004.7 mb 0.00 in0.0 mm 0.00 in0.0 mm 0.00 in0.0 mm
11:28 AM 94.9°F34.9°C 41.6°F5.3°C 16% 7.0 mph W11.3 kmh W 13.0 mph20.9 kmh 29.67 in1004.7 mb 0.00 in0.0 mm 0.00 in0.0 mm 0.00 in0.0 mm
11:23 AM 94.7°F34.8°C 39.8°F4.3°C 15% 6.0 mph NW9.7 kmh NW 13.0 mph20.9 kmh 29.67 in1004.7 mb 0.00 in0.0 mm 0.00 in0.0 mm 0.00 in0.0 mm
11:18 AM 94.7°F34.8°C 38.1°F3.4°C 14% 11.0 mph NW17.7 kmh NW 13.0 mph20.9 kmh 29.67 in1004.7 mb 0.00 in0.0 mm 0.00 in0.0 mm 0.00 in0.0 mm
11:13 AM 94.3°F34.6°C 37.7°F3.2°C 14% 4.0 mph NW6.4 kmh NW 12.0 mph19.3 kmh 29.67 in1004.7 mb 0.00 in0.0 mm 0.00 in0.0 mm 0.00 in0.0 mm
11:08 AM 94.0°F34.4°C 39.3°F4.1°C 15% 2.0 mph SW3.2 kmh SW 12.0 mph19.3 kmh 29.67 in1004.7 mb 0.00 in0.0 mm 0.00 in0.0 mm 0.00 in0.0 mm
11:03 AM 93.8°F34.3°C 39.1°F3.9°C 15% 4.0 mph NNW6.4 kmh NNW 12.0 mph19.3 kmh 29.67 in1004.7 mb 0.00 in0.0 mm 0.00 in0.0 mm 0.00 in0.0 mm
10:58 AM 93.8°F34.3°C 39.1°F3.9°C 15% 10.0 mph WNW16.1 kmh WNW 11.0 mph17.7 kmh 29.67 in1004.7 mb 0.00 in0.0 mm 0.00 in0.0 mm 0.00 in0.0 mm
10:53 AM 94.0°F34.4°C 39.3°F4.1°C 15% 5.0 mph WSW8.0 kmh WSW 11.0 mph17.7 kmh 29.67 in1004.7 mb 0.00 in0.0 mm 0.00 in0.0 mm 0.00 in0.0 mm
10:48 AM 93.8°F34.3°C 39.1°F3.9°C 15% 6.0 mph WNW9.7 kmh WNW 11.0 mph17.7 kmh 29.67 in1004.7 mb 0.00 in0.0 mm 0.00 in0.0 mm 0.00 in0.0 mm
10:43 AM 93.6°F34.2°C 39.0°F3.9°C 15% 5.0 mph NW8.0 kmh NW 11.0 mph17.7 kmh 29.67 in1004.7 mb 0.00 in0.0 mm 0.00 in0.0 mm 0.00 in0.0 mm
10:38 AM 93.6°F34.2°C 39.0°F3.9°C 15% 2.0 mph WNW3.2 kmh WNW 10.0 mph16.1 kmh 29.67 in1004.7 mb 0.00 in0.0 mm 0.00 in0.0 mm 0.00 in0.0 mm
10:33 AM 93.2°F34.0°C 38.6°F3.7°C 15% 4.0 mph W6.4 kmh W 10.0 mph16.1 kmh 29.67 in1004.7 mb 0.00 in0.0 mm 0.00 in0.0 mm 0.00 in0.0 mm
10:28 AM 92.9°F33.8°C 38.4°F3.6°C 15% 4.0 mph SW6.4 kmh SW 10.0 mph16.1 kmh 29.67 in1004.7 mb 0.00 in0.0 mm 0.00 in0.0 mm 0.00 in0.0 mm
10:23 AM 92.5°F33.6°C 38.1°F3.4°C 15% 5.0 mph W8.0 kmh W 10.0 mph16.1 kmh 29.67 in1004.7 mb 0.00 in0.0 mm 0.00 in0.0 mm 0.00 in0.0 mm
10:18 AM 92.1°F33.4°C 41.0°F5.0°C 17% 3.0 mph W4.8 kmh W 10.0 mph16.1 kmh 29.67 in1004.7 mb 0.00 in0.0 mm 0.00 in0.0 mm 0.00 in0.0 mm
10:13 AM 92.1°F33.4°C 39.4°F4.1°C 16% 5.0 mph WSW8.0 kmh WSW 10.0 mph16.1 kmh 29.67 in1004.7 mb 0.00 in0.0 mm 0.00 in0.0 mm 0.00 in0.0 mm
10:08 AM 92.1°F33.4°C 41.0°F5.0°C 17% 4.0 mph NW6.4 kmh NW 9.0 mph14.5 kmh 29.67 in1004.7 mb 0.00 in0.0 mm 0.00 in0.0 mm 0.00 in0.0 mm
10:03 AM 91.6°F33.1°C 39.0°F3.9°C 16% 3.0 mph WNW4.8 kmh WNW 7.0 mph11.3 kmh 29.67 in1004.7 mb 0.00 in0.0 mm 0.00 in0.0 mm 0.00 in0.0 mm
09:58 AM 91.4°F33.0°C 38.9°F3.8°C 16% 3.0 mph WSW4.8 kmh WSW 7.0 mph11.3 kmh 29.67 in1004.7 mb 0.00 in0.0 mm 0.00 in0.0 mm 0.00 in0.0 mm
09:53 AM 91.0°F32.8°C 38.5°F3.6°C 16% Calm Calm 6.0 mph9.7 kmh 29.67 in1004.7 mb 0.00 in0.0 mm 0.00 in0.0 mm 0.00 in0.0 mm
09:48 AM 90.5°F32.5°C 38.1°F3.4°C 16% Calm Calm 6.0 mph9.7 kmh 29.67 in1004.7 mb 0.00 in0.0 mm 0.00 in0.0 mm 0.00 in0.0 mm
09:43 AM 90.3°F32.4°C 39.5°F4.2°C 17% 2.0 mph WSW3.2 kmh WSW 6.0 mph9.7 kmh 29.67 in1004.7 mb 0.00 in0.0 mm 0.00 in0.0 mm 0.00 in0.0 mm
09:38 AM 89.7°F32.1°C 39.1°F3.9°C 17% 2.0 mph WSW3.2 kmh WSW 6.0 mph9.7 kmh 29.67 in1004.7 mb 0.00 in0.0 mm 0.00 in0.0 mm 0.00 in0.0 mm
09:33 AM 89.0°F31.7°C 40.0°F4.4°C 18% 1.0 mph WSW1.6 kmh WSW 5.0 mph8.0 kmh 29.67 in1004.7 mb 0.00 in0.0 mm 0.00 in0.0 mm 0.00 in0.0 mm
09:28 AM 88.6°F31.4°C 39.6°F4.2°C 18% 4.0 mph W6.4 kmh W 5.0 mph8.0 kmh 29.68 in1005.1 mb 0.00 in0.0 mm 0.00 in0.0 mm 0.00 in0.0 mm
09:23 AM 88.6°F31.4°C 39.6°F4.2°C 18% 3.0 mph SSW4.8 kmh SSW 5.0 mph8.0 kmh 29.68 in1005.1 mb 0.00 in0.0 mm 0.00 in0.0 mm 0.00 in0.0 mm
09:18 AM 88.2°F31.2°C 39.3°F4.1°C 18% 1.0 mph WSW1.6 kmh WSW 5.0 mph8.0 kmh 29.68 in1005.1 mb 0.00 in0.0 mm 0.00 in0.0 mm 0.00 in0.0 mm
09:13 AM 87.8°F31.0°C 40.4°F4.7°C 19% 2.0 mph SSW3.2 kmh SSW 5.0 mph8.0 kmh 29.67 in1004.7 mb 0.00 in0.0 mm 0.00 in0.0 mm 0.00 in0.0 mm
09:08 AM 87.2°F30.7°C 39.9°F4.4°C 19% 3.0 mph W4.8 kmh W 4.0 mph6.4 kmh 29.67 in1004.7 mb 0.00 in0.0 mm 0.00 in0.0 mm 0.00 in0.0 mm
09:03 AM 86.7°F30.4°C 40.8°F4.9°C 20% 3.0 mph SW4.8 kmh SW 4.0 mph6.4 kmh 29.67 in1004.7 mb 0.00 in0.0 mm 0.00 in0.0 mm 0.00 in0.0 mm
08:58 AM 86.1°F30.1°C 40.3°F4.6°C 20% 4.0 mph W6.4 kmh W 4.0 mph6.4 kmh 29.67 in1004.7 mb 0.00 in0.0 mm 0.00 in0.0 mm 0.00 in0.0 mm
08:53 AM 85.7°F29.8°C 40.0°F4.4°C 20% 1.0 mph WSW1.6 kmh WSW 3.0 mph4.8 kmh 29.67 in1004.7 mb 0.00 in0.0 mm 0.00 in0.0 mm 0.00 in0.0 mm
08:48 AM 85.5°F29.7°C 39.8°F4.3°C 20% 1.0 mph WSW1.6 kmh WSW 4.0 mph6.4 kmh 29.67 in1004.7 mb 0.00 in0.0 mm 0.00 in0.0 mm 0.00 in0.0 mm
08:43 AM 85.1°F29.5°C 40.7°F4.8°C 21% 1.0 mph WSW1.6 kmh WSW 4.0 mph6.4 kmh 29.68 in1005.1 mb 0.00 in0.0 mm 0.00 in0.0 mm 0.00 in0.0 mm
08:38 AM 84.5°F29.2°C 40.3°F4.6°C 21% 3.0 mph SW4.8 kmh SW 4.0 mph6.4 kmh 29.68 in1005.1 mb 0.00 in0.0 mm 0.00 in0.0 mm 0.00 in0.0 mm
08:33 AM 83.6°F28.7°C 40.7°F4.8°C 22% 4.0 mph W6.4 kmh W 4.0 mph6.4 kmh 29.68 in1005.1 mb 0.00 in0.0 mm 0.00 in0.0 mm 0.00 in0.0 mm
08:28 AM 82.4°F28.0°C 40.9°F4.9°C 23% 1.0 mph SW1.6 kmh SW 3.0 mph4.8 kmh 29.69 in1005.4 mb 0.00 in0.0 mm 0.00 in0.0 mm 0.00 in0.0 mm
08:23 AM 81.6°F27.6°C 40.2°F4.6°C 23% 2.0 mph SW3.2 kmh SW 3.0 mph4.8 kmh 29.69 in1005.4 mb 0.00 in0.0 mm 0.00 in0.0 mm 0.00 in0.0 mm
08:18 AM 80.7°F27.1°C 41.6°F5.3°C 25% 1.0 mph SW1.6 kmh SW 2.0 mph3.2 kmh 29.69 in1005.4 mb 0.00 in0.0 mm 0.00 in0.0 mm 0.00 in0.0 mm
08:13 AM 79.4°F26.3°C 39.4°F4.1°C 24% Calm Calm 1.0 mph1.6 kmh 29.69 in1005.4 mb 0.00 in0.0 mm 0.00 in0.0 mm 0.00 in0.0 mm
08:08 AM 78.3°F25.7°C 39.6°F4.2°C 25% Calm Calm -- 29.69 in1005.4 mb 0.00 in0.0 mm 0.00 in0.0 mm 0.00 in0.0 mm
08:03 AM 77.7°F25.4°C 39.1°F3.9°C 25% 1.0 mph SW1.6 kmh SW 2.0 mph3.2 kmh 29.69 in1005.4 mb 0.00 in0.0 mm 0.00 in0.0 mm 0.00 in0.0 mm
07:58 AM 77.0°F25.0°C 38.5°F3.6°C 25% 2.0 mph SW3.2 kmh SW 2.0 mph3.2 kmh 29.70 in1005.8 mb 0.00 in0.0 mm 0.00 in0.0 mm 0.00 in0.0 mm
07:53 AM 76.5°F24.7°C 38.0°F3.3°C 25% 1.0 mph SW1.6 kmh SW 4.0 mph6.4 kmh 29.70 in1005.8 mb 0.00 in0.0 mm 0.00 in0.0 mm 0.00 in0.0 mm
07:48 AM 76.1°F24.5°C 37.7°F3.2°C 25% Calm Calm 4.0 mph6.4 kmh 29.70 in1005.8 mb 0.00 in0.0 mm 0.00 in0.0 mm 0.00 in0.0 mm
07:43 AM 75.6°F24.2°C 39.2°F4.0°C 27% 2.0 mph SW3.2 kmh SW 4.0 mph6.4 kmh 29.70 in1005.8 mb 0.00 in0.0 mm 0.00 in0.0 mm 0.00 in0.0 mm
07:38 AM 75.1°F23.9°C 37.9°F3.3°C 26% 1.0 mph NW1.6 kmh NW 3.0 mph4.8 kmh 29.70 in1005.8 mb 0.00 in0.0 mm 0.00 in0.0 mm 0.00 in0.0 mm
07:33 AM 74.6°F23.7°C 37.4°F3.0°C 26% Calm Calm 3.0 mph4.8 kmh 29.70 in1005.8 mb 0.00 in0.0 mm 0.00 in0.0 mm 0.00 in0.0 mm
07:28 AM 73.7°F23.2°C 37.6°F3.1°C 27% 1.0 mph NW1.6 kmh NW 2.0 mph3.2 kmh 29.70 in1005.8 mb 0.00 in0.0 mm 0.00 in0.0 mm 0.00 in0.0 mm
07:23 AM 72.5°F22.5°C 37.5°F3.1°C 28% 1.0 mph NW1.6 kmh NW 2.0 mph3.2 kmh 29.70 in1005.8 mb 0.00 in0.0 mm 0.00 in0.0 mm 0.00 in0.0 mm
07:18 AM 71.6°F22.0°C 37.6°F3.1°C 29% 1.0 mph NW1.6 kmh NW 1.0 mph1.6 kmh 29.70 in1005.8 mb 0.00 in0.0 mm 0.00 in0.0 mm 0.00 in0.0 mm
07:13 AM 71.3°F21.8°C 37.4°F3.0°C 29% 1.0 mph NW1.6 kmh NW 1.0 mph1.6 kmh 29.70 in1005.8 mb 0.00 in0.0 mm 0.00 in0.0 mm 0.00 in0.0 mm
07:08 AM 70.8°F21.6°C 37.8°F3.2°C 30% 1.0 mph NW1.6 kmh NW 3.0 mph4.8 kmh 29.70 in1005.8 mb 0.00 in0.0 mm 0.00 in0.0 mm 0.00 in0.0 mm
07:03 AM 70.4°F21.3°C 38.3°F3.5°C 31% 1.0 mph NW1.6 kmh NW 2.0 mph3.2 kmh 29.70 in1005.8 mb 0.00 in0.0 mm 0.00 in0.0 mm 0.00 in0.0 mm
06:58 AM 70.3°F21.3°C 39.0°F3.9°C 32% Calm Calm -- 29.70 in1005.8 mb 0.00 in0.0 mm 0.00 in0.0 mm 0.00 in0.0 mm
06:53 AM 70.1°F21.2°C 37.2°F2.9°C 30% Calm Calm -- 29.70 in1005.8 mb 0.00 in0.0 mm 0.00 in0.0 mm 0.00 in0.0 mm
06:48 AM 69.8°F21.0°C 37.8°F3.2°C 31% 1.0 mph NW1.6 kmh NW 2.0 mph3.2 kmh 29.70 in1005.8 mb 0.00 in0.0 mm 0.00 in0.0 mm 0.00 in0.0 mm
06:43 AM 69.4°F20.8°C 38.3°F3.5°C 32% Calm Calm -- 29.70 in1005.8 mb 0.00 in0.0 mm 0.00 in0.0 mm 0.00 in0.0 mm
06:38 AM 69.1°F20.6°C 37.2°F2.9°C 31% Calm Calm -- 29.70 in1005.8 mb 0.00 in0.0 mm 0.00 in0.0 mm 0.00 in0.0 mm
06:33 AM 68.6°F20.3°C 37.6°F3.1°C 32% Calm Calm -- 29.70 in1005.8 mb 0.00 in0.0 mm 0.00 in0.0 mm 0.00 in0.0 mm
06:28 AM 68.3°F20.2°C 37.3°F2.9°C 32% 2.0 mph NW3.2 kmh NW 3.0 mph4.8 kmh 29.69 in1005.4 mb 0.00 in0.0 mm 0.00 in0.0 mm 0.00 in0.0 mm
06:23 AM 68.1°F20.1°C 36.3°F2.4°C 31% Calm Calm -- 29.69 in1005.4 mb 0.00 in0.0 mm 0.00 in0.0 mm 0.00 in0.0 mm
06:18 AM 67.9°F19.9°C 36.9°F2.7°C 32% Calm Calm -- 29.69 in1005.4 mb 0.00 in0.0 mm 0.00 in0.0 mm 0.00 in0.0 mm
06:13 AM 67.8°F19.9°C 36.9°F2.7°C 32% Calm Calm 2.0 mph3.2 kmh 29.68 in1005.1 mb 0.00 in0.0 mm 0.00 in0.0 mm 0.00 in0.0 mm
06:08 AM 67.8°F19.9°C 36.9°F2.7°C 32% Calm Calm -- 29.68 in1005.1 mb 0.00 in0.0 mm 0.00 in0.0 mm 0.00 in0.0 mm
06:03 AM 67.9°F19.9°C 36.1°F2.3°C 31% 2.0 mph NW3.2 kmh NW 2.0 mph3.2 kmh 29.68 in1005.1 mb 0.00 in0.0 mm 0.00 in0.0 mm 0.00 in0.0 mm
05:58 AM 67.9°F19.9°C 36.1°F2.3°C 31% Calm Calm 3.0 mph4.8 kmh 29.68 in1005.1 mb 0.00 in0.0 mm 0.00 in0.0 mm 0.00 in0.0 mm
05:53 AM 67.8°F19.9°C 36.9°F2.7°C 32% 1.0 mph NW1.6 kmh NW 3.0 mph4.8 kmh 29.68 in1005.1 mb 0.00 in0.0 mm 0.00 in0.0 mm 0.00 in0.0 mm
05:48 AM 67.6°F19.8°C 36.7°F2.6°C 32% 2.0 mph NW3.2 kmh NW 2.0 mph3.2 kmh 29.68 in1005.1 mb 0.00 in0.0 mm 0.00 in0.0 mm 0.00 in0.0 mm
05:43 AM 67.6°F19.8°C 36.7°F2.6°C 32% Calm Calm -- 29.68 in1005.1 mb 0.00 in0.0 mm 0.00 in0.0 mm 0.00 in0.0 mm
05:38 AM 67.6°F19.8°C 36.7°F2.6°C 32% Calm Calm 1.0 mph1.6 kmh 29.68 in1005.1 mb 0.00 in0.0 mm 0.00 in0.0 mm 0.00 in0.0 mm
05:33 AM 67.8°F19.9°C 36.1°F2.3°C 31% 1.0 mph NW1.6 kmh NW 2.0 mph3.2 kmh 29.68 in1005.1 mb 0.00 in0.0 mm 0.00 in0.0 mm 0.00 in0.0 mm
05:28 AM 67.8°F19.9°C 36.1°F2.3°C 31% Calm Calm -- 29.68 in1005.1 mb 0.00 in0.0 mm 0.00 in0.0 mm 0.00 in0.0 mm
05:23 AM 67.9°F19.9°C 36.1°F2.3°C 31% Calm Calm -- 29.68 in1005.1 mb 0.00 in0.0 mm 0.00 in0.0 mm 0.00 in0.0 mm
05:18 AM 68.1°F20.1°C 36.3°F2.4°C 31% Calm Calm -- 29.68 in1005.1 mb 0.00 in0.0 mm 0.00 in0.0 mm 0.00 in0.0 mm
05:13 AM 68.3°F20.2°C 35.7°F2.1°C 30% Calm Calm 2.0 mph3.2 kmh 29.68 in1005.1 mb 0.00 in0.0 mm 0.00 in0.0 mm 0.00 in0.0 mm
05:08 AM 68.3°F20.2°C 36.5°F2.5°C 31% Calm Calm -- 29.68 in1005.1 mb 0.00 in0.0 mm 0.00 in0.0 mm 0.00 in0.0 mm
05:03 AM 68.3°F20.2°C 36.5°F2.5°C 31% Calm Calm -- 29.68 in1005.1 mb 0.00 in0.0 mm 0.00 in0.0 mm 0.00 in0.0 mm
04:58 AM 68.3°F20.2°C 35.7°F2.1°C 30% 1.0 mph NW1.6 kmh NW 3.0 mph4.8 kmh 29.67 in1004.7 mb 0.00 in0.0 mm 0.00 in0.0 mm 0.00 in0.0 mm
04:53 AM 68.3°F20.2°C 36.5°F2.5°C 31% 1.0 mph NW1.6 kmh NW 3.0 mph4.8 kmh 29.67 in1004.7 mb 0.00 in0.0 mm 0.00 in0.0 mm 0.00 in0.0 mm
04:48 AM 68.4°F20.2°C 36.6°F2.6°C 31% 1.0 mph NW1.6 kmh NW 3.0 mph4.8 kmh 29.67 in1004.7 mb 0.00 in0.0 mm 0.00 in0.0 mm 0.00 in0.0 mm
04:43 AM 68.6°F20.3°C 35.9°F2.2°C 30% Calm Calm 3.0 mph4.8 kmh 29.68 in1005.1 mb 0.00 in0.0 mm 0.00 in0.0 mm 0.00 in0.0 mm
04:38 AM 68.6°F20.3°C 35.9°F2.2°C 30% 2.0 mph NW3.2 kmh NW 3.0 mph4.8 kmh 29.68 in1005.1 mb 0.00 in0.0 mm 0.00 in0.0 mm 0.00 in0.0 mm
04:33 AM 68.4°F20.2°C 35.7°F2.1°C 30% 2.0 mph NW3.2 kmh NW 3.0 mph4.8 kmh 29.68 in1005.1 mb 0.00 in0.0 mm 0.00 in0.0 mm 0.00 in0.0 mm
04:28 AM 68.4°F20.2°C 36.6°F2.6°C 31% 2.0 mph NW3.2 kmh NW 2.0 mph3.2 kmh 29.68 in1005.1 mb 0.00 in0.0 mm 0.00 in0.0 mm 0.00 in0.0 mm
04:23 AM 68.8°F20.4°C 36.1°F2.3°C 30% Calm Calm -- 29.68 in1005.1 mb 0.00 in0.0 mm 0.00 in0.0 mm 0.00 in0.0 mm
04:18 AM 68.9°F20.5°C 36.2°F2.3°C 30% Calm Calm 2.0 mph3.2 kmh 29.68 in1005.1 mb 0.00 in0.0 mm 0.00 in0.0 mm 0.00 in0.0 mm
04:13 AM 68.9°F20.5°C 35.3°F1.8°C 29% 1.0 mph NW1.6 kmh NW 2.0 mph3.2 kmh 29.67 in1004.7 mb 0.00 in0.0 mm 0.00 in0.0 mm 0.00 in0.0 mm
04:08 AM 68.9°F20.5°C 35.3°F1.8°C 29% Calm Calm -- 29.67 in1004.7 mb 0.00 in0.0 mm 0.00 in0.0 mm 0.00 in0.0 mm
04:03 AM 69.1°F20.6°C 35.5°F1.9°C 29% Calm Calm 3.0 mph4.8 kmh 29.67 in1004.7 mb 0.00 in0.0 mm 0.00 in0.0 mm 0.00 in0.0 mm
03:58 AM 69.1°F20.6°C 34.6°F1.4°C 28% Calm Calm -- 29.67 in1004.7 mb 0.00 in0.0 mm 0.00 in0.0 mm 0.00 in0.0 mm
03:53 AM 69.1°F20.6°C 34.6°F1.4°C 28% Calm Calm 2.0 mph3.2 kmh 29.67 in1004.7 mb 0.00 in0.0 mm 0.00 in0.0 mm 0.00 in0.0 mm
03:48 AM 68.9°F20.5°C 35.3°F1.8°C 29% 1.0 mph NW1.6 kmh NW 1.0 mph1.6 kmh 29.67 in1004.7 mb 0.00 in0.0 mm 0.00 in0.0 mm 0.00 in0.0 mm
03:43 AM 68.9°F20.5°C 35.3°F1.8°C 29% Calm Calm -- 29.67 in1004.7 mb 0.00 in0.0 mm 0.00 in0.0 mm 0.00 in0.0 mm
03:38 AM 68.8°F20.4°C 35.2°F1.8°C 29% Calm Calm 2.0 mph3.2 kmh 29.67 in1004.7 mb 0.00 in0.0 mm 0.00 in0.0 mm 0.00 in0.0 mm
03:33 AM 68.8°F20.4°C 35.2°F1.8°C 29% Calm Calm -- 29.67 in1004.7 mb 0.00 in0.0 mm 0.00 in0.0 mm 0.00 in0.0 mm
03:28 AM 68.9°F20.5°C 35.3°F1.8°C 29% Calm Calm -- 29.67 in1004.7 mb 0.00 in0.0 mm 0.00 in0.0 mm 0.00 in0.0 mm
03:23 AM 69.1°F20.6°C 35.5°F1.9°C 29% 1.0 mph NW1.6 kmh NW 3.0 mph4.8 kmh 29.67 in1004.7 mb 0.00 in0.0 mm 0.00 in0.0 mm 0.00 in0.0 mm
03:18 AM 69.1°F20.6°C 35.5°F1.9°C 29% 1.0 mph NW1.6 kmh NW 3.0 mph4.8 kmh 29.67 in1004.7 mb 0.00 in0.0 mm 0.00 in0.0 mm 0.00 in0.0 mm
03:13 AM 69.1°F20.6°C 36.4°F2.4°C 30% Calm Calm 3.0 mph4.8 kmh 29.66 in1004.4 mb 0.00 in0.0 mm 0.00 in0.0 mm 0.00 in0.0 mm
03:08 AM 69.3°F20.7°C 36.5°F2.5°C 30% 1.0 mph NW1.6 kmh NW 2.0 mph3.2 kmh 29.66 in1004.4 mb 0.00 in0.0 mm 0.00 in0.0 mm 0.00 in0.0 mm
03:03 AM 69.4°F20.8°C 35.8°F2.1°C 29% Calm Calm 1.0 mph1.6 kmh 29.66 in1004.4 mb 0.00 in0.0 mm 0.00 in0.0 mm 0.00 in0.0 mm
02:58 AM 69.9°F21.1°C 36.2°F2.3°C 29% Calm Calm -- 29.66 in1004.4 mb 0.00 in0.0 mm 0.00 in0.0 mm 0.00 in0.0 mm
02:53 AM 70.1°F21.2°C 36.4°F2.4°C 29% Calm Calm 2.0 mph3.2 kmh 29.66 in1004.4 mb 0.00 in0.0 mm 0.00 in0.0 mm 0.00 in0.0 mm
02:48 AM 70.3°F21.3°C 36.5°F2.5°C 29% 2.0 mph NW3.2 kmh NW 2.0 mph3.2 kmh 29.66 in1004.4 mb 0.00 in0.0 mm 0.00 in0.0 mm 0.00 in0.0 mm
02:43 AM 70.1°F21.2°C 36.4°F2.4°C 29% 1.0 mph NW1.6 kmh NW 2.0 mph3.2 kmh 29.66 in1004.4 mb 0.00 in0.0 mm 0.00 in0.0 mm 0.00 in0.0 mm
02:38 AM 70.3°F21.3°C 36.5°F2.5°C 29% Calm Calm 1.0 mph1.6 kmh 29.66 in1004.4 mb 0.00 in0.0 mm 0.00 in0.0 mm 0.00 in0.0 mm
02:33 AM 70.4°F21.3°C 36.6°F2.6°C 29% Calm Calm 2.0 mph3.2 kmh 29.66 in1004.4 mb 0.00 in0.0 mm 0.00 in0.0 mm 0.00 in0.0 mm
02:28 AM 70.4°F21.3°C 35.7°F2.1°C 28% 1.0 mph NW1.6 kmh NW 1.0 mph1.6 kmh 29.67 in1004.7 mb 0.00 in0.0 mm 0.00 in0.0 mm 0.00 in0.0 mm
02:23 AM 70.4°F21.3°C 35.7°F2.1°C 28% Calm Calm -- 29.67 in1004.7 mb 0.00 in0.0 mm 0.00 in0.0 mm 0.00 in0.0 mm
02:18 AM 70.4°F21.3°C 35.7°F2.1°C 28% 2.0 mph NW3.2 kmh NW 2.0 mph3.2 kmh 29.67 in1004.7 mb 0.00 in0.0 mm 0.00 in0.0 mm 0.00 in0.0 mm
02:13 AM 70.4°F21.3°C 35.7°F2.1°C 28% Calm Calm 1.0 mph1.6 kmh 29.67 in1004.7 mb 0.00 in0.0 mm 0.00 in0.0 mm 0.00 in0.0 mm
02:08 AM 70.6°F21.4°C 36.8°F2.7°C 29% Calm Calm -- 29.67 in1004.7 mb 0.00 in0.0 mm 0.00 in0.0 mm 0.00 in0.0 mm
02:03 AM 70.6°F21.4°C 36.8°F2.7°C 29% Calm Calm 3.0 mph4.8 kmh 29.67 in1004.7 mb 0.00 in0.0 mm 0.00 in0.0 mm 0.00 in0.0 mm
01:58 AM 70.6°F21.4°C 37.6°F3.1°C 30% 2.0 mph NW3.2 kmh NW 3.0 mph4.8 kmh 29.67 in1004.7 mb 0.00 in0.0 mm 0.00 in0.0 mm 0.00 in0.0 mm
01:53 AM 70.6°F21.4°C 37.6°F3.1°C 30% 1.0 mph NW1.6 kmh NW 2.0 mph3.2 kmh 29.67 in1004.7 mb 0.00 in0.0 mm 0.00 in0.0 mm 0.00 in0.0 mm
01:48 AM 70.9°F21.6°C 36.2°F2.3°C 28% Calm Calm -- 29.67 in1004.7 mb 0.00 in0.0 mm 0.00 in0.0 mm 0.00 in0.0 mm
01:43 AM 71.1°F21.7°C 36.3°F2.4°C 28% Calm Calm 2.0 mph3.2 kmh 29.66 in1004.4 mb 0.00 in0.0 mm 0.00 in0.0 mm 0.00 in0.0 mm
01:38 AM 71.3°F21.8°C 36.5°F2.5°C 28% 1.0 mph NW1.6 kmh NW 2.0 mph3.2 kmh 29.66 in1004.4 mb 0.00 in0.0 mm 0.00 in0.0 mm 0.00 in0.0 mm
01:33 AM 71.6°F22.0°C 36.8°F2.7°C 28% Calm Calm 1.0 mph1.6 kmh 29.66 in1004.4 mb 0.00 in0.0 mm 0.00 in0.0 mm 0.00 in0.0 mm
01:28 AM 71.8°F22.1°C 36.0°F2.2°C 27% Calm Calm -- 29.67 in1004.7 mb 0.00 in0.0 mm 0.00 in0.0 mm 0.00 in0.0 mm
01:23 AM 71.8°F22.1°C 36.9°F2.7°C 28% 1.0 mph NW1.6 kmh NW 3.0 mph4.8 kmh 29.67 in1004.7 mb 0.00 in0.0 mm 0.00 in0.0 mm 0.00 in0.0 mm
01:18 AM 71.8°F22.1°C 36.0°F2.2°C 27% Calm Calm 3.0 mph4.8 kmh 29.67 in1004.7 mb 0.00 in0.0 mm 0.00 in0.0 mm 0.00 in0.0 mm
01:13 AM 71.6°F22.0°C 36.8°F2.7°C 28% 2.0 mph NW3.2 kmh NW 3.0 mph4.8 kmh 29.68 in1005.1 mb 0.00 in0.0 mm 0.00 in0.0 mm 0.00 in0.0 mm
01:08 AM 71.5°F21.9°C 35.8°F2.1°C 27% 2.0 mph NW3.2 kmh NW 2.0 mph3.2 kmh 29.68 in1005.1 mb 0.00 in0.0 mm 0.00 in0.0 mm 0.00 in0.0 mm
01:03 AM 71.6°F22.0°C 35.8°F2.1°C 27% Calm Calm -- 29.68 in1005.1 mb 0.00 in0.0 mm 0.00 in0.0 mm 0.00 in0.0 mm
12:58 AM 71.8°F22.1°C 36.0°F2.2°C 27% 1.0 mph NW1.6 kmh NW 2.0 mph3.2 kmh 29.68 in1005.1 mb 0.00 in0.0 mm 0.00 in0.0 mm 0.00 in0.0 mm
12:53 AM 71.8°F22.1°C 36.0°F2.2°C 27% Calm Calm 2.0 mph3.2 kmh 29.68 in1005.1 mb 0.00 in0.0 mm 0.00 in0.0 mm 0.00 in0.0 mm
12:48 AM 72.0°F22.2°C 36.2°F2.3°C 27% 1.0 mph NW1.6 kmh NW 2.0 mph3.2 kmh 29.68 in1005.1 mb 0.00 in0.0 mm 0.00 in0.0 mm 0.00 in0.0 mm
12:43 AM 72.1°F22.3°C 36.3°F2.4°C 27% Calm Calm -- 29.67 in1004.7 mb 0.00 in0.0 mm 0.00 in0.0 mm 0.00 in0.0 mm
12:38 AM 72.3°F22.4°C 37.4°F3.0°C 28% Calm Calm 2.0 mph3.2 kmh 29.67 in1004.7 mb 0.00 in0.0 mm 0.00 in0.0 mm 0.00 in0.0 mm
12:33 AM 72.5°F22.5°C 36.6°F2.6°C 27% Calm Calm -- 29.67 in1004.7 mb 0.00 in0.0 mm 0.00 in0.0 mm 0.00 in0.0 mm
12:28 AM 72.8°F22.7°C 36.9°F2.7°C 27% Calm Calm -- 29.68 in1005.1 mb 0.00 in0.0 mm 0.00 in0.0 mm 0.00 in0.0 mm
12:23 AM 73.0°F22.8°C 38.0°F3.3°C 28% Calm Calm 1.0 mph1.6 kmh 29.68 in1005.1 mb 0.00 in0.0 mm 0.00 in0.0 mm 0.00 in0.0 mm
12:18 AM 73.3°F22.9°C 37.3°F2.9°C 27% Calm Calm -- 29.68 in1005.1 mb 0.00 in0.0 mm 0.00 in0.0 mm 0.00 in0.0 mm
12:13 AM 73.7°F23.2°C 37.6°F3.1°C 27% Calm Calm 1.0 mph1.6 kmh 29.68 in1005.1 mb 0.00 in0.0 mm 0.00 in0.0 mm 0.00 in0.0 mm
12:08 AM 73.9°F23.3°C 37.8°F3.2°C 27% Calm Calm -- 29.68 in1005.1 mb 0.00 in0.0 mm 0.00 in0.0 mm 0.00 in0.0 mm
12:03 AM 74.2°F23.4°C 37.1°F2.8°C 26% 2.0 mph NW3.2 kmh NW 2.0 mph3.2 kmh 29.68 in1005.1 mb 0.00 in0.0 mm 0.00 in0.0 mm 0.00 in0.0 mm